Time;durP1;ratioP1;P1;durP2;ratioP2;P2;SDS_P1;SDS_P2;PMS_P1;PMS_P2;Temp;Humidity;BMP_temperature;BMP_pressure;BME280_temperature;BME280_humidity;BME280_pressure;Samples;Min_cycle;Max_cycle;Signal;HPM_P1;HPM_P2
2022/08/27 00:02:24;;;;;;;;;1.33;1.33;;;;;27.09;42.78;48416.16;4994506;28;45406;-79
2022/08/27 00:04:50;;;;;;;;;1.00;1.00;;;;;27.14;43.23;48385.69;4994569;28;45410;-78
2022/08/27 00:07:15;;;;;;;;;2.00;2.00;;;;;27.13;42.66;47752.91;4994759;28;45497;-79
2022/08/27 00:09:41;;;;;;;;;0.33;0.33;;;;;27.12;43.34;47573.88;4993973;28;46358;-79
2022/08/27 00:12:07;;;;;;;;;1.00;1.00;;;;;27.05;43.50;47284.16;4976215;28;45477;-79
2022/08/27 00:14:33;;;;;;;;;0.67;0.67;;;;;26.99;43.25;47038.97;4994361;28;45554;-78
2022/08/27 00:16:59;;;;;;;;;1.33;1.33;;;;;27.01;43.37;46754.50;4994686;28;45486;-78
2022/08/27 00:19:25;;;;;;;;;1.00;1.00;;;;;26.97;43.79;46484.03;4993959;28;45545;-78
2022/08/27 00:21:51;;;;;;;;;1.00;1.00;;;;;26.97;43.01;46400.38;4994175;28;45456;-79
2022/08/27 00:24:16;;;;;;;;;1.00;1.00;;;;;26.89;43.67;46113.66;4993637;28;45447;-78
2022/08/27 00:26:41;;;;;;;;;1.00;1.00;;;;;26.95;43.66;46140.50;4994295;28;45394;-78
2022/08/27 00:29:07;;;;;;;;;1.33;1.33;;;;;27.01;43.71;46168.81;4994168;28;46029;-79
2022/08/27 00:31:34;;;;;;;;;1.67;1.67;;;;;26.92;43.41;46019.34;4994082;28;45467;-78
2022/08/27 00:34:00;;;;;;;;;1.00;1.00;;;;;26.94;43.37;45950.38;4994267;28;45547;-79
2022/08/27 00:36:26;;;;;;;;;1.00;1.00;;;;;26.86;43.59;45587.84;4994587;28;45699;-78
2022/08/27 00:38:52;;;;;;;;;1.00;1.00;;;;;26.97;43.14;45639.78;4993734;28;45410;-78
2022/08/27 00:41:19;;;;;;;;;2.00;1.00;;;;;26.98;43.56;45778.22;4993849;28;45489;-78
2022/08/27 00:43:52;;;;;;;;;1.00;1.00;;;;;26.81;43.43;45475.94;4976370;28;45530;-78
2022/08/27 00:46:29;;;;;;;;;5.33;2.00;;;;;26.80;43.26;45307.91;4994095;28;45508;-78
2022/08/27 00:49:00;;;;;;;;;1.00;1.00;;;;;26.74;43.38;44443.69;4993566;28;47116;-78
2022/08/27 00:51:27;;;;;;;;;1.00;1.00;;;;;26.79;43.66;43940.28;4993692;28;45485;-78
2022/08/27 00:53:55;;;;;;;;;1.00;1.00;;;;;26.74;43.90;43661.41;4993420;28;45773;-79
2022/08/27 00:56:25;;;;;;;;;1.00;1.00;;;;;26.72;44.16;43490.06;4993868;28;45354;-78
2022/08/27 00:58:53;;;;;;;;;1.00;1.00;;;;;26.79;43.56;43945.28;4993659;28;46088;-79
2022/08/27 01:01:24;;;;;;;;;4.33;1.33;;;;;26.79;43.62;43497.72;4992284;28;45560;-78
2022/08/27 01:03:53;;;;;;;;;1.00;1.00;;;;;26.76;43.75;43803.13;4993605;27;45425;-78
2022/08/27 01:06:20;;;;;;;;;2.00;1.00;;;;;26.73;43.98;44081.22;4993881;28;45454;-78
2022/08/27 01:09:00;;;;;;;;;1.00;1.00;;;;;26.79;43.70;43878.25;4975715;28;45701;-78
2022/08/27 01:11:26;;;;;;;;;1.00;1.00;;;;;26.71;43.59;43802.00;4993421;28;45508;-78
2022/08/27 01:13:52;;;;;;;;;2.00;2.00;;;;;26.70;44.30;43049.53;4975808;28;45454;-78
2022/08/27 01:16:22;;;;;;;;;2.00;1.00;;;;;26.76;43.51;43309.41;4993676;28;45446;-78
2022/08/27 01:18:48;;;;;;;;;1.00;1.00;;;;;26.78;43.87;43243.53;4994436;28;46180;-78
2022/08/27 01:21:25;;;;;;;;;3.33;1.00;;;;;26.71;43.54;43093.03;4993100;28;45378;-78
2022/08/27 01:24:17;;;;;;;;;4.33;1.33;;;;;26.60;43.65;42591.97;4993966;28;45496;-78
2022/08/27 01:26:42;;;;;;;;;3.00;1.00;;;;;26.68;44.41;42220.69;4996376;28;45430;-78
2022/08/27 01:29:08;;;;;;;;;2.00;1.00;;;;;26.61;44.08;41902.56;4996396;28;45469;-78
2022/08/27 01:31:34;;;;;;;;;1.00;1.00;;;;;26.61;43.70;42288.22;4996211;28;45515;-73
2022/08/27 01:34:02;;;;;;;;;1.00;1.00;;;;;26.63;44.38;41942.13;4996119;28;45526;-73
2022/08/27 01:36:28;;;;;;;;;1.00;1.00;;;;;26.63;43.92;41863.63;4978377;28;45500;-73
2022/08/27 01:38:54;;;;;;;;;1.67;1.00;;;;;26.58;44.25;41817.22;4996098;28;45450;-73
2022/08/27 01:41:21;;;;;;;;;1.50;1.50;;;;;27.01;43.86;43010.25;4996334;28;45339;-73
2022/08/27 01:43:47;;;;;;;;;1.00;1.00;;;;;26.73;43.60;42580.13;4995996;28;45384;-73
2022/08/27 01:46:13;;;;;;;;;1.00;1.00;;;;;26.72;44.04;42050.81;4978694;28;45525;-74
2022/08/27 01:48:39;;;;;;;;;2.33;1.00;;;;;26.66;44.15;42361.63;4978223;28;48442;-74
2022/08/27 01:51:05;;;;;;;;;1.33;1.33;;;;;26.66;44.17;42393.97;4995910;28;45883;-73
2022/08/27 01:53:31;;;;;;;;;1.00;1.00;;;;;26.69;44.13;41806.47;4995995;28;45426;-73
2022/08/27 01:55:57;;;;;;;;;2.00;2.00;;;;;26.95;43.42;42040.91;5064710;27;45430;-73
2022/08/27 01:58:29;;;;;;;;;1.00;1.00;;;;;26.60;43.90;42255.16;4996042;28;46282;-73
2022/08/27 02:00:59;;;;;;;;;2.67;1.67;;;;;26.58;44.43;41983.88;4995558;28;45477;-73
2022/08/27 02:03:25;;;;;;;;;1.00;1.00;;;;;26.64;44.12;41721.59;4996001;27;45438;-73
2022/08/27 02:05:51;;;;;;;;;0.75;0.75;;;;;26.64;44.35;41616.88;4988246;28;45603;-73
2022/08/27 02:08:18;;;;;;;;;0.00;0.00;;;;;26.67;44.07;41594.47;4995399;28;46523;-73
2022/08/27 02:10:45;;;;;;;;;2.67;1.00;;;;;26.67;43.67;41532.50;4995562;28;45621;-73
2022/08/27 02:13:12;;;;;;;;;1.67;1.00;;;;;26.66;43.81;41852.75;4995998;28;45803;-74
2022/08/27 02:15:39;;;;;;;;;1.00;1.00;;;;;26.61;43.94;41388.41;4995668;28;45398;-73
2022/08/27 02:18:06;;;;;;;;;2.25;1.25;;;;;26.66;43.69;41704.19;4977872;28;45542;-73
2022/08/27 02:20:31;;;;;;;;;1.50;1.00;;;;;26.64;44.27;41662.31;4995447;28;45419;-73
2022/08/27 02:22:57;;;;;;;;;1.75;0.00;;;;;26.63;44.21;41842.09;4995777;28;45583;-73
2022/08/27 02:25:22;;;;;;;;;1.00;1.00;;;;;26.65;44.38;41746.94;4995697;28;45375;-73
2022/08/27 02:27:49;;;;;;;;;1.00;1.00;;;;;26.66;43.68;41855.44;4995558;28;47271;-73
2022/08/27 02:30:19;;;;;;;;;1.33;1.33;;;;;26.67;43.59;42082.53;4995568;28;45405;-73
2022/08/27 02:32:46;;;;;;;;;0.25;0.25;;;;;26.58;44.20;41986.56;4994103;28;45419;-73
2022/08/27 02:35:13;;;;;;;;;1.00;1.00;;;;;26.67;43.55;42238.81;4995635;28;45476;-73
2022/08/27 02:37:39;;;;;;;;;1.33;1.00;;;;;26.64;43.63;42209.25;4995363;28;46069;-73
2022/08/27 02:40:06;;;;;;;;;3.00;1.00;;;;;26.60;44.22;41971.88;4995591;28;45555;-73
2022/08/27 02:42:32;;;;;;;;;1.00;1.00;;;;;26.61;44.16;41684.72;4978102;28;45433;-74
2022/08/27 02:44:57;;;;;;;;;1.00;1.00;;;;;26.57;44.23;41743.38;4977672;28;45662;-73
2022/08/27 02:47:23;;;;;;;;;1.00;1.00;;;;;26.53;43.90;41686.91;4995478;28;45505;-74
2022/08/27 02:49:48;;;;;;;;;1.00;1.00;;;;;26.61;43.73;41563.50;4995160;28;45526;-74
2022/08/27 02:52:15;;;;;;;;;1.00;1.00;;;;;26.61;44.32;41649.69;4994013;28;45467;-73
2022/08/27 02:54:42;;;;;;;;;1.67;1.67;;;;;26.58;44.11;41455.88;4978151;28;45401;-73
2022/08/27 02:57:08;;;;;;;;;0.00;0.00;;;;;26.66;44.33;41712.28;4994955;28;46132;-73
2022/08/27 02:59:34;;;;;;;;;0.25;0.25;;;;;26.61;44.40;41566.19;4995134;28;45386;-74
2022/08/27 03:02:00;;;;;;;;;1.00;1.00;;;;;26.50;43.95;41412.66;4977896;28;45452;-73
2022/08/27 03:04:27;;;;;;;;;1.00;1.00;;;;;26.53;44.49;41334.44;4995117;28;45528;-74
2022/08/27 03:06:53;;;;;;;;;2.00;2.00;;;;;26.84;43.75;42102.84;4994966;28;45967;-73
2022/08/27 03:09:19;;;;;;;;;1.00;1.00;;;;;26.49;44.21;41236.88;4977423;28;45516;-73
2022/08/27 03:11:44;;;;;;;;;3.00;1.67;;;;;26.54;44.41;41377.91;4995120;28;45440;-73
2022/08/27 03:14:11;;;;;;;;;0.00;0.00;;;;;26.49;44.50;41598.16;4995213;28;45445;-74
2022/08/27 03:16:38;;;;;;;;;1.00;1.00;;;;;26.49;44.19;41048.38;4994757;28;46513;-74
2022/08/27 03:19:07;;;;;;;;;3.00;2.00;;;;;26.52;43.96;41152.88;4994606;28;45365;-73
2022/08/27 03:21:34;;;;;;;;;1.00;1.00;;;;;26.47;44.43;41467.41;4995026;28;45488;-73
2022/08/27 03:24:00;;;;;;;;;1.00;1.00;;;;;26.49;44.20;41563.13;4994998;28;45553;-73
2022/08/27 03:26:27;;;;;;;;;3.67;2.00;;;;;26.47;44.45;41052.28;4994694;28;46288;-73
2022/08/27 03:28:53;;;;;;;;;1.75;1.00;;;;;26.47;44.37;41642.47;4994925;28;45451;-73
2022/08/27 03:31:28;;;;;;;;;1.00;1.00;;;;;26.14;43.87;41928.19;4994940;28;45389;-73
2022/08/27 03:33:57;;;;;;;;;1.00;1.00;;;;;26.44;43.88;41783.00;4977131;28;45639;-73
2022/08/27 03:36:24;;;;;;;;;2.00;1.00;;;;;26.29;44.34;41648.47;4994644;28;45493;-73
2022/08/27 03:38:49;;;;;;;;;2.00;2.00;;;;;26.28;44.58;41348.50;4994518;28;45576;-73
2022/08/27 03:41:16;;;;;;;;;1.00;1.00;;;;;26.23;44.82;40973.34;4994680;28;45378;-74
2022/08/27 03:43:42;;;;;;;;;1.00;1.00;;;;;26.13;44.71;38474.63;4995171;28;45556;-73
2022/08/27 03:46:08;;;;;;;;;1.00;1.00;;;;;26.16;44.98;40185.47;4976155;28;47099;-73
2022/08/27 03:48:34;;;;;;;;;1.00;1.00;;;;;26.09;44.37;40175.13;4994150;28;45489;-73
2022/08/27 03:51:10;;;;;;;;;1.00;1.00;;;;;26.05;44.73;39801.00;4994788;28;45750;-73
2022/08/27 03:53:39;;;;;;;;;1.33;1.33;;;;;26.02;45.15;39877.25;4994865;28;45402;-73
2022/08/27 03:56:05;;;;;;;;;1.00;1.00;;;;;25.92;44.62;39318.81;4994317;28;45586;-73
2022/08/27 03:58:32;;;;;;;;;2.00;2.00;;;;;25.87;45.38;38751.00;4994447;28;45374;-73
2022/08/27 04:00:58;;;;;;;;;1.25;1.25;;;;;25.87;45.41;38648.81;4994200;28;45523;-73
2022/08/27 04:03:23;;;;;;;;;2.00;2.00;;;;;25.81;45.47;38292.50;4994732;28;45327;-74
2022/08/27 04:05:53;;;;;;;;;1.33;1.33;;;;;25.82;45.03;37981.00;4994241;28;46091;-73
2022/08/27 04:08:20;;;;;;;;;2.00;2.00;;;;;25.83;45.11;37371.88;4994333;28;45436;-73
2022/08/27 04:10:46;;;;;;;;;1.00;1.00;;;;;25.74;45.10;37236.56;4976522;28;45408;-73
2022/08/27 04:13:12;;;;;;;;;1.00;1.00;;;;;25.80;45.03;36875.41;4977072;28;45524;-73
2022/08/27 04:15:45;;;;;;;;;1.33;1.33;;;;;26.17;45.02;36498.13;4976361;28;47238;-74
2022/08/27 04:18:14;;;;;;;;;2.00;2.00;;;;;25.79;45.48;37140.78;4976371;28;45433;-73
2022/08/27 04:20:40;;;;;;;;;1.00;1.00;;;;;25.72;45.41;36813.72;4994309;28;45354;-73
2022/08/27 04:23:06;;;;;;;;;2.33;1.67;;;;;25.65;45.45;36213.06;4977019;28;45543;-73
2022/08/27 04:25:32;;;;;;;;;1.33;1.33;;;;;25.71;45.34;36004.41;4993750;28;45430;-74
2022/08/27 04:27:58;;;;;;;;;1.00;1.00;;;;;25.65;45.57;35474.44;4994270;28;45416;-74
2022/08/27 04:30:23;;;;;;;;;1.00;1.00;;;;;25.69;45.61;35382.97;4976363;28;45497;-73
2022/08/27 04:32:50;;;;;;;;;1.67;1.33;;;;;25.99;45.30;36341.59;4994358;28;45437;-73
2022/08/27 04:35:15;;;;;;;;;2.00;2.00;;;;;25.74;45.24;35159.91;4994154;28;46181;-73
2022/08/27 04:37:42;;;;;;;;;1.67;1.00;;;;;25.75;45.33;35193.06;4994025;28;45441;-73
2022/08/27 04:40:08;;;;;;;;;1.67;1.67;;;;;25.69;45.93;34115.19;4994040;28;45371;-73
2022/08/27 04:42:34;;;;;;;;;2.00;2.00;;;;;25.74;45.54;33592.00;4994190;28;45405;-73
2022/08/27 04:44:59;;;;;;;;;2.00;2.00;;;;;25.66;45.86;33809.97;4994583;28;47304;-73
2022/08/27 04:47:25;;;;;;;;;4.00;2.00;;;;;25.66;45.49;33273.13;4976226;28;45472;-73
2022/08/27 04:49:50;;;;;;;;;2.00;2.00;;;;;25.65;46.10;33267.44;4994114;28;45880;-73
2022/08/27 04:52:15;;;;;;;;;1.67;1.67;;;;;25.59;46.11;32396.75;4994100;28;45441;-73
2022/08/27 04:54:41;;;;;;;;;1.00;1.00;;;;;25.57;45.97;32307.34;4993581;28;45508;-73
2022/08/27 04:57:07;;;;;;;;;2.00;1.33;;;;;25.52;45.96;32100.25;4976202;28;45546;-73
2022/08/27 04:59:34;;;;;;;;;2.67;2.00;;;;;25.47;46.45;31588.28;4992157;28;45721;-73
2022/08/27 05:02:01;;;;;;;;;2.33;2.00;;;;;25.77;45.91;31926.84;4993963;28;45458;-73
2022/08/27 05:04:29;;;;;;;;;3.67;2.00;;;;;25.85;45.79;33574.47;4993207;28;45956;-73
2022/08/27 05:06:54;;;;;;;;;4.00;2.00;;;;;25.82;45.00;34987.94;4993611;28;45414;-73
2022/08/27 05:09:20;;;;;;;;;3.00;2.00;;;;;25.84;45.36;35104.41;4993686;28;45543;-73
2022/08/27 05:11:45;;;;;;;;;2.00;2.00;;;;;25.82;45.28;35463.09;4993907;28;45647;-74
2022/08/27 05:14:13;;;;;;;;;3.33;1.33;;;;;25.82;45.03;35807.28;4993201;28;46305;-74
2022/08/27 05:16:39;;;;;;;;;2.33;2.00;;;;;25.76;45.04;35644.66;4993137;28;45534;-73
2022/08/27 05:19:07;;;;;;;;;1.00;1.00;;;;;25.79;45.41;35834.91;4993533;28;45460;-74
2022/08/27 05:21:35;;;;;;;;;2.00;2.00;;;;;25.82;45.25;35952.03;4975966;28;45439;-73
2022/08/27 05:24:03;;;;;;;;;1.00;1.00;;;;;25.82;45.29;35807.28;4992921;28;45506;-73
2022/08/27 05:26:29;;;;;;;;;2.00;2.00;;;;;25.84;45.05;35429.75;4993109;28;45492;-73
2022/08/27 05:28:58;;;;;;;;;1.00;1.00;;;;;25.87;45.08;35705.38;4993040;28;45611;-74
2022/08/27 05:31:25;;;;;;;;;1.00;1.00;;;;;25.90;45.03;36190.97;4993370;28;45408;-73
2022/08/27 05:33:50;;;;;;;;;1.67;1.67;;;;;25.90;45.46;36282.34;4975575;28;47909;-73
2022/08/27 05:36:29;;;;;;;;;0.00;0.00;;;;;25.87;45.33;36522.56;4975443;28;45496;-73
2022/08/27 05:38:56;;;;;;;;;2.67;2.00;;;;;25.93;44.80;36955.84;4993089;28;45555;-73
2022/08/27 05:41:26;;;;;;;;;2.00;2.00;;;;;25.92;44.57;37629.88;4993209;28;45420;-73
2022/08/27 05:43:52;;;;;;;;;3.00;3.00;;;;;25.93;45.02;37343.25;4992650;28;47130;-73
2022/08/27 05:46:21;;;;;;;;;2.00;2.00;;;;;25.97;45.33;36929.25;4992832;28;45419;-73
2022/08/27 05:48:47;;;;;;;;;3.00;1.33;;;;;25.96;45.10;37041.47;4975282;28;45538;-73
2022/08/27 05:51:16;;;;;;;;;2.00;2.00;;;;;25.95;45.12;37053.94;4993165;28;45481;-73
2022/08/27 05:53:42;;;;;;;;;2.00;2.00;;;;;25.96;44.83;37344.91;4992738;28;45481;-73
2022/08/27 05:56:20;;;;;;;;;1.67;1.67;;;;;25.83;44.99;37863.75;4992476;28;45507;-73
2022/08/27 06:01:35;;;;;;;;;3.00;1.67;;;;;25.84;44.61;38033.78;4992601;28;45406;-73
2022/08/27 06:04:01;;;;;;;;;1.00;1.00;;;;;25.84;45.22;38066.03;4971956;28;46840;-73
2022/08/27 06:06:27;;;;;;;;;2.00;2.00;;;;;25.81;45.44;37542.56;4973534;28;45432;-73
2022/08/27 06:08:53;;;;;;;;;2.00;2.00;;;;;25.81;45.02;37964.22;4974784;28;45487;-73
2022/08/27 06:11:20;;;;;;;;;1.67;1.67;;;;;25.78;44.74;38126.16;4995052;28;45535;-74
2022/08/27 06:13:45;;;;;;;;;2.00;2.00;;;;;25.70;45.36;37524.78;4995219;28;46169;-73
2022/08/27 06:16:14;;;;;;;;;2.00;2.00;;;;;25.72;45.24;36644.44;4977346;28;45489;-72
2022/08/27 06:18:41;;;;;;;;;2.33;2.33;;;;;25.82;45.53;36978.50;4994032;28;46862;-74
2022/08/27 06:21:07;;;;;;;;;3.00;3.00;;;;;25.87;45.15;36573.63;4995827;28;45628;-74
2022/08/27 06:23:34;;;;;;;;;2.00;2.00;;;;;25.85;44.84;36932.09;4994947;28;45491;-74
2022/08/27 06:26:00;;;;;;;;;2.00;2.00;;;;;25.78;45.50;37249.97;4994968;28;45589;-74
2022/08/27 06:28:28;;;;;;;;;3.33;2.00;;;;;25.88;45.52;36267.94;4995361;28;45402;-73
2022/08/27 06:31:05;;;;;;;;;5.00;1.00;;;;;25.85;45.00;36876.00;4995874;28;45602;-73
2022/08/27 06:33:31;;;;;;;;;2.67;2.33;;;;;25.92;45.09;36699.84;4995329;28;46244;-73
2022/08/27 06:36:01;;;;;;;;;3.67;2.00;;;;;25.99;45.15;37164.44;4977569;28;45916;-74
2022/08/27 06:38:27;;;;;;;;;2.00;2.00;;;;;26.03;45.32;36774.59;4977677;28;45425;-74
2022/08/27 06:40:53;;;;;;;;;3.00;2.00;;;;;26.05;45.06;37184.53;4978063;28;45441;-74
2022/08/27 06:43:18;;;;;;;;;3.67;2.00;;;;;26.08;44.35;37842.28;4994908;28;47190;-73
2022/08/27 06:45:44;;;;;;;;;1.33;1.00;;;;;26.16;44.77;37408.97;4995095;28;45719;-73
2022/08/27 06:48:09;;;;;;;;;3.33;3.00;;;;;26.20;44.93;37766.97;4995311;28;45560;-73
2022/08/27 06:50:39;;;;;;;;;3.33;3.33;;;;;26.24;44.42;37893.38;4994381;28;45536;-74
2022/08/27 06:53:05;;;;;;;;;4.33;2.00;;;;;26.32;44.25;37559.50;4994788;28;45575;-73
2022/08/27 06:55:31;;;;;;;;;2.00;2.00;;;;;26.31;44.29;37825.47;4994491;28;45449;-74
2022/08/27 06:57:56;;;;;;;;;3.00;2.33;;;;;26.41;44.65;37199.31;4995762;28;45579;-74
2022/08/27 07:00:21;;;;;;;;;1.33;1.00;;;;;26.50;44.35;37595.41;5010922;27;45445;-74
2022/08/27 07:02:47;;;;;;;;;2.33;2.33;;;;;26.51;44.17;37755.16;5054510;27;45465;-75
2022/08/27 07:05:12;;;;;;;;;2.00;2.00;;;;;26.45;44.11;38364.31;5063249;27;45521;-79
2022/08/27 07:07:38;;;;;;;;;3.00;3.00;;;;;26.58;44.05;39150.78;5003335;28;45375;-75
2022/08/27 07:10:03;;;;;;;;;2.00;2.00;;;;;26.63;44.05;37972.81;4993389;28;45394;-78
2022/08/27 07:12:29;;;;;;;;;4.33;3.00;;;;;26.59;44.49;37146.31;5001552;27;45603;-74
2022/08/27 07:14:54;;;;;;;;;4.67;3.00;;;;;26.70;44.37;38289.81;5077616;27;45519;-75
2022/08/27 07:17:19;;;;;;;;;4.67;3.00;;;;;26.72;44.60;37343.66;5048968;27;45437;-74
2022/08/27 07:19:45;;;;;;;;;6.00;2.67;;;;;26.83;43.70;37781.03;5064565;27;45472;-76
2022/08/27 07:22:11;;;;;;;;;3.00;2.00;;;;;26.83;43.95;37792.13;5058972;27;48586;-75
2022/08/27 07:24:37;;;;;;;;;2.67;2.67;;;;;26.49;44.76;36021.31;5002058;27;45493;-73
2022/08/27 07:27:02;;;;;;;;;2.67;2.67;;;;;26.57;44.76;35253.91;5039007;27;45570;-73
2022/08/27 07:29:27;;;;;;;;;7.00;4.00;;;;;26.62;44.92;35926.81;5058515;27;45537;-74
2022/08/27 07:31:53;;;;;;;;;3.33;3.00;;;;;26.65;44.89;34853.13;5020774;27;45490;-73
2022/08/27 07:34:18;;;;;;;;;4.00;4.00;;;;;26.69;44.78;34557.09;4995631;28;45776;-73
2022/08/27 07:36:43;;;;;;;;;6.00;3.00;;;;;26.85;44.74;35607.91;5027979;27;45406;-73
2022/08/27 07:39:09;;;;;;;;;3.67;3.67;;;;;26.94;44.13;36286.16;5069115;27;45464;-73
2022/08/27 07:44:23;;;;;;;;;4.67;4.67;;;;;26.93;44.20;35403.09;5039131;27;45504;-77
2022/08/27 07:44:26;;;;;;;;;3.33;3.33;;;;;27.02;43.89;35900.69;5028151;27;45544;-75
2022/08/27 07:46:57;;;;;;;;;2.33;2.33;;;;;27.09;44.41;35953.97;5024162;27;45548;-76
2022/08/27 07:49:24;;;;;;;;;4.00;4.00;;;;;27.09;44.00;36521.72;5039521;27;45485;-74
2022/08/27 07:51:50;;;;;;;;;3.33;3.33;;;;;27.17;43.53;35598.31;5011790;28;45583;-73
2022/08/27 07:54:16;;;;;;;;;4.00;2.33;;;;;27.26;43.94;36120.44;5015156;27;45356;-72
2022/08/27 07:56:41;;;;;;;;;3.00;3.00;;;;;27.23;44.39;36040.41;5000635;28;45506;-72
2022/08/27 07:59:07;;;;;;;;;3.33;3.33;;;;;27.33;43.96;36908.75;5005178;27;45632;-73
2022/08/27 08:01:32;;;;;;;;;5.00;4.00;;;;;27.44;43.48;36422.97;4985857;28;46263;-75
2022/08/27 08:03:58;;;;;;;;;3.00;3.00;;;;;27.43;43.47;36901.50;5051926;27;45586;-76
2022/08/27 08:06:23;;;;;;;;;4.33;3.33;;;;;27.43;43.89;35657.31;4989535;28;45548;-76
2022/08/27 08:08:48;;;;;;;;;4.67;3.00;;;;;27.62;43.54;36116.03;5001847;28;45418;-76
2022/08/27 08:11:15;;;;;;;;;4.33;2.67;;;;;27.67;43.22;37108.63;5013929;27;46160;-75
2022/08/27 08:13:42;;;;;;;;;3.33;2.67;;;;;27.77;43.17;37683.78;5004406;27;45528;-76
2022/08/27 08:16:08;;;;;;;;;3.00;3.00;;;;;27.83;43.26;36830.09;5004668;28;45532;-74
2022/08/27 08:18:34;;;;;;;;;3.00;3.00;;;;;27.89;43.02;37376.00;5008456;28;45489;-75
2022/08/27 08:21:06;;;;;;;;;3.00;3.00;;;;;27.93;42.84;36491.88;5013449;28;46967;-75
2022/08/27 08:23:32;;;;;;;;;3.00;3.00;;;;;28.12;42.79;38203.28;5054315;27;45387;-74
2022/08/27 08:25:58;;;;;;;;;3.67;2.33;;;;;28.14;42.17;39437.53;5039902;27;45434;-75
2022/08/27 08:28:24;;;;;;;;;2.67;2.67;;;;;28.27;42.10;40345.28;5035992;27;45721;-75
2022/08/27 08:30:51;;;;;;;;;3.33;3.33;;;;;28.39;41.75;40694.47;4982478;28;47499;-74
2022/08/27 08:33:16;;;;;;;;;4.00;4.00;;;;;28.47;42.35;39716.78;5000873;28;45487;-73
2022/08/27 08:35:42;;;;;;;;;4.67;3.00;;;;;28.73;41.70;40764.16;5060546;27;45456;-74
2022/08/27 08:38:07;;;;;;;;;4.00;2.00;;;;;29.11;40.27;43622.91;5019988;27;45643;-72
2022/08/27 08:40:38;;;;;;;;;3.67;2.00;;;;;29.44;39.53;43607.19;5045426;27;45825;-72
2022/08/27 08:43:08;;;;;;;;;3.33;2.00;;;;;29.81;39.50;44916.31;5000117;28;45437;-72
2022/08/27 08:45:39;;;;;;;;;3.00;2.00;;;;;30.80;37.37;46775.81;5055972;27;45484;-73
2022/08/27 08:48:10;;;;;;;;;6.00;3.00;;;;;31.73;36.23;48446.78;5028322;27;45462;-73
2022/08/27 08:50:50;;;;;;;;;2.33;2.33;;;;;31.63;35.29;51714.59;5081668;27;46385;-73
2022/08/27 08:53:30;;;;;;;;;3.00;3.00;;;;;31.40;35.72;51631.81;5045229;27;45724;-73
2022/08/27 08:56:00;;;;;;;;;3.00;3.00;;;;;31.76;35.95;50718.47;5004967;28;45488;-75
2022/08/27 08:58:38;;;;;;;;;3.00;2.00;;;;;33.42;34.69;48847.50;4988408;27;45568;-76
2022/08/27 09:01:06;;;;;;;;;3.00;3.00;;;;;34.79;32.30;50640.28;4981512;28;47581;-73
2022/08/27 09:03:35;;;;;;;;;1.00;1.00;;;;;36.13;30.28;51623.78;5003330;28;45480;-73
2022/08/27 09:06:06;;;;;;;;;2.75;1.25;;;;;37.25;28.29;52965.78;5011883;28;45491;-73
2022/08/27 09:08:39;;;;;;;;;2.33;2.33;;;;;38.29;27.17;53416.25;5082228;27;45600;-73
2022/08/27 09:11:07;;;;;;;;;2.00;2.00;;;;;38.78;25.90;54173.31;5053846;27;46689;-74
2022/08/27 09:13:41;;;;;;;;;2.00;2.00;;;;;39.14;25.55;54663.47;5053211;27;45482;-73
2022/08/27 09:16:07;;;;;;;;;2.25;2.00;;;;;39.41;24.81;54878.66;5046918;27;45497;-73
2022/08/27 09:18:39;;;;;;;;;2.00;2.00;;;;;39.74;24.89;54293.59;5023306;27;45445;-74
2022/08/27 09:21:23;;;;;;;;;2.33;2.33;;;;;40.36;24.73;53276.00;5009203;27;48157;-73
2022/08/27 09:24:13;;;;;;;;;3.25;2.00;;;;;40.71;23.80;53484.41;5044310;27;45457;-73
2022/08/27 09:26:41;;;;;;;;;3.00;2.33;;;;;41.19;23.68;52784.09;5097259;27;45434;-74
2022/08/27 09:29:16;;;;;;;;;3.00;3.00;;;;;41.64;23.59;51944.13;5055581;27;45566;-74
2022/08/27 09:31:54;;;;;;;;;9.00;6.00;;;;;41.91;22.99;52039.72;5048496;27;46172;-74
2022/08/27 09:34:20;;;;;;;;;3.33;2.33;;;;;41.96;22.24;52764.09;5081156;27;45403;-72
2022/08/27 09:36:58;;;;;;;;;0.67;0.67;;;;;41.50;23.05;53610.97;5000223;28;45555;-73
2022/08/27 09:39:42;;;;;;;;;2.00;2.00;;;;;41.22;24.19;53635.44;5031852;27;45506;-73
2022/08/27 09:42:29;;;;;;;;;2.00;0.75;;;;;40.95;24.51;54331.88;5033011;27;46233;-74
2022/08/27 09:44:55;;;;;;;;;2.33;2.33;;;;;40.71;24.51;54938.13;4998121;28;45418;-75
2022/08/27 09:47:22;;;;;;;;;1.00;1.00;;;;;40.79;23.86;55251.50;5050841;27;45380;-73
2022/08/27 09:49:48;;;;;;;;;2.33;2.33;;;;;40.95;23.03;55080.97;5048281;27;45508;-74
2022/08/27 09:52:45;;;;;;;;;1.75;1.00;;;;;41.14;23.38;54698.00;5081100;27;46301;-74
2022/08/27 09:55:10;;;;;;;;;2.00;2.00;;;;;41.48;22.76;54369.78;4989906;28;45451;-74
2022/08/27 09:57:40;;;;;;;;;4.67;1.67;;;;;41.67;23.21;53794.94;5059314;27;45457;-74
2022/08/27 10:00:14;;;;;;;;;3.00;1.75;;;;;41.76;22.58;54376.09;5037756;27;45576;-74
2022/08/27 10:02:49;;;;;;;;;4.00;1.00;;;;;41.84;22.28;54410.75;5084478;27;46247;-73
2022/08/27 10:05:28;;;;;;;;;1.75;1.75;;;;;41.86;22.35;54531.16;5013736;28;45413;-74
2022/08/27 10:08:00;;;;;;;;;1.75;1.75;;;;;41.70;22.82;54441.97;5085206;27;45714;-74
2022/08/27 10:10:47;;;;;;;;;2.25;1.50;;;;;41.64;22.05;55202.88;5017078;27;45379;-74
2022/08/27 10:13:44;;;;;;;;;3.00;3.00;;;;;41.49;22.50;55795.13;5027830;27;47342;-74
2022/08/27 10:16:32;;;;;;;;;0.00;0.00;;;;;41.30;22.26;56267.66;5035094;27;45515;-75
2022/08/27 10:19:34;;;;;;;;;1.00;1.00;;;;;41.11;22.35;56731.13;4968115;28;45471;-74
2022/08/27 10:22:21;;;;;;;;;1.33;1.33;;;;;41.07;22.28;56934.19;5035710;28;45496;-73
2022/08/27 10:24:56;;;;;;;;;2.00;2.00;;;;;40.87;23.97;56749.28;5034737;28;46261;-74
2022/08/27 10:27:39;;;;;;;;;2.00;2.00;;;;;40.80;22.65;57425.50;5035120;28;45452;-73
2022/08/27 10:30:14;;;;;;;;;1.00;1.00;;;;;40.59;22.79;57972.09;5035463;28;45482;-74
2022/08/27 10:32:52;;;;;;;;;1.00;1.00;;;;;40.69;22.96;57747.47;5034768;28;45562;-74
2022/08/27 10:35:41;;;;;;;;;2.00;2.00;;;;;40.70;22.00;58119.03;5031259;28;46213;-74
2022/08/27 10:38:16;;;;;;;;;0.33;0.33;;;;;40.70;22.20;58083.06;4917664;28;45687;-74
2022/08/27 10:40:52;;;;;;;;;2.00;2.00;;;;;40.85;22.01;57807.03;4933669;28;45553;-74
2022/08/27 10:43:39;;;;;;;;;2.00;2.00;;;;;40.90;23.12;57377.22;4925803;28;45556;-74
2022/08/27 10:46:25;;;;;;;;;0.67;0.67;;;;;40.99;21.20;58218.28;4922927;28;46379;-74
2022/08/27 10:49:02;;;;;;;;;3.33;3.33;;;;;40.82;21.38;58398.28;4913271;28;45875;-75
2022/08/27 10:51:40;;;;;;;;;5.00;1.67;;;;;40.88;21.37;58373.81;4926472;28;45586;-74
2022/08/27 10:54:23;;;;;;;;;2.00;2.00;;;;;41.07;22.65;57529.50;4922249;28;45577;-74
2022/08/27 10:56:57;;;;;;;;;0.33;0.33;;;;;41.37;22.52;56998.44;4913539;28;45507;-74
2022/08/27 10:59:34;;;;;;;;;1.00;0.33;;;;;41.59;21.28;57274.63;4974707;28;45518;-74
2022/08/27 11:02:06;;;;;;;;;1.00;1.00;;;;;41.48;20.63;57925.50;4994777;28;45478;-75
2022/08/27 11:04:40;;;;;;;;;1.33;1.33;;;;;41.36;20.89;58268.47;4994832;28;45591;-75
2022/08/27 11:07:17;;;;;;;;;2.00;1.00;;;;;41.33;21.68;57787.09;4978211;28;46165;-76
2022/08/27 11:09:48;;;;;;;;;2.00;2.00;;;;;41.32;20.85;58322.63;4978449;28;45449;-76
2022/08/27 11:12:20;;;;;;;;;2.00;2.00;;;;;41.43;21.90;57586.09;4994943;28;45479;-75
2022/08/27 11:14:55;;;;;;;;;2.00;2.00;;;;;41.54;22.36;57109.19;4982560;28;45640;-76
2022/08/27 11:17:36;;;;;;;;;2.67;2.67;;;;;41.50;20.81;58127.34;5001962;28;46491;-74
2022/08/27 11:20:15;;;;;;;;;2.67;2.67;;;;;41.38;21.33;58267.22;5067657;27;45444;-76
2022/08/27 11:22:55;;;;;;;;;2.00;2.00;;;;;41.27;21.45;58373.00;5028306;27;45413;-76
2022/08/27 11:25:20;;;;;;;;;1.67;1.67;;;;;41.59;20.62;58129.78;5062801;27;45605;-76
2022/08/27 11:27:52;;;;;;;;;3.00;1.00;;;;;41.18;21.14;58638.03;5063685;27;46598;-75
2022/08/27 11:30:40;;;;;;;;;2.00;2.00;;;;;41.24;20.75;58824.00;5044811;27;45517;-77
2022/08/27 11:33:25;;;;;;;;;4.00;1.00;;;;;41.16;20.98;58979.25;4987337;28;45456;-74
2022/08/27 11:36:08;;;;;;;;;4.00;3.00;;;;;41.04;20.75;59463.59;4988722;28;45663;-77
2022/08/27 11:38:44;;;;;;;;;1.00;1.00;;;;;41.05;21.21;59032.84;5004562;28;47302;-75
2022/08/27 11:41:57;;;;;;;;;1.00;1.00;;;;;41.01;21.74;59120.13;4991166;28;45535;-75
2022/08/27 11:44:25;;;;;;;;;1.67;1.67;;;;;41.11;21.12;59077.63;5030736;28;45719;-77
2022/08/27 11:46:56;;;;;;;;;1.33;1.33;;;;;41.11;21.25;59135.25;5000929;28;45513;-75
2022/08/27 11:49:42;;;;;;;;;3.67;2.33;;;;;41.07;21.49;59133.97;5022343;28;46967;-76